N371BC KDAB-KPNE
Flight info
| Callsign | N371BC |
|---|---|
| Flight time | N/A |
| Altitude | 39000 |
| Route | KDAB/07L N0461F390 ROYES7 CRG DCT CHS DCT ORF DCT SWL DCT KPNE/24 |
| Aircraft | B738/M-VGDW/C |
Departure
| Time | N/A |
|---|---|
| Airport | Daytona Beach International Airport (KDAB) |
Arrival
| Time | 2026-05-06 03:54 |
|---|---|
| Airport | Northeast Philadelphia Airport (KPNE) |
| Time | Latitude | Longitude | Altitude | Speed | Heading |
|---|---|---|---|---|---|
| 2026-05-06 02:20 | 32.32534 | -80.37376 | 39078 ft | 418 kts | 14° |
| 2026-05-06 02:20 | 32.35156 | -80.35843 | 39081 ft | 420 kts | 15° |
| 2026-05-06 02:21 | 32.40389 | -80.32777 | 39080 ft | 421 kts | 15° |
| 2026-05-06 02:21 | 32.45713 | -80.29652 | 39077 ft | 423 kts | 15° |
| 2026-05-06 02:22 | 32.50941 | -80.26570 | 39080 ft | 420 kts | 15° |
| 2026-05-06 02:22 | 32.56216 | -80.23464 | 39079 ft | 420 kts | 15° |
| 2026-05-06 02:23 | 32.61459 | -80.20373 | 39078 ft | 421 kts | 15° |
| 2026-05-06 02:23 | 32.66696 | -80.17279 | 39081 ft | 420 kts | 15° |
| 2026-05-06 02:24 | 32.71933 | -80.14185 | 39083 ft | 421 kts | 15° |
| 2026-05-06 02:24 | 32.77164 | -80.11083 | 39079 ft | 419 kts | 15° |
| 2026-05-06 02:25 | 32.82408 | -80.07980 | 39078 ft | 423 kts | 16° |
| 2026-05-06 02:25 | 32.87627 | -80.04818 | 39079 ft | 424 kts | 19° |
| 2026-05-06 02:26 | 32.92606 | -80.00867 | 39080 ft | 434 kts | 25° |
| 2026-05-06 02:26 | 32.97424 | -79.96565 | 39081 ft | 433 kts | 26° |
| 2026-05-06 02:27 | 33.02266 | -79.92210 | 39078 ft | 437 kts | 26° |
| 2026-05-06 02:27 | 33.07095 | -79.87841 | 39080 ft | 435 kts | 26° |
| 2026-05-06 02:28 | 33.11969 | -79.83429 | 39077 ft | 440 kts | 26° |
| 2026-05-06 02:28 | 33.16814 | -79.79026 | 39076 ft | 438 kts | 26° |
| 2026-05-06 02:29 | 33.21616 | -79.74654 | 39074 ft | 435 kts | 26° |
| 2026-05-06 02:29 | 33.26437 | -79.70265 | 39077 ft | 437 kts | 26° |
| 2026-05-06 02:30 | 33.31242 | -79.65880 | 39079 ft | 435 kts | 26° |
| 2026-05-06 02:30 | 33.36082 | -79.61459 | 39079 ft | 435 kts | 26° |
| 2026-05-06 02:31 | 33.40890 | -79.57061 | 39081 ft | 437 kts | 26° |
| 2026-05-06 02:31 | 33.45694 | -79.52657 | 39084 ft | 434 kts | 26° |
| 2026-05-06 02:32 | 33.50477 | -79.48265 | 39081 ft | 433 kts | 26° |
| 2026-05-06 02:32 | 33.55284 | -79.43853 | 39086 ft | 436 kts | 26° |
| 2026-05-06 02:33 | 33.60100 | -79.39418 | 39079 ft | 432 kts | 26° |
| 2026-05-06 02:33 | 33.61661 | -79.37978 | 39081 ft | 430 kts | 26° |
| 2026-05-06 02:34 | 33.69590 | -79.30669 | 39090 ft | 436 kts | 27° |
| 2026-05-06 02:34 | 33.74407 | -79.26219 | 39088 ft | 435 kts | 27° |
| 2026-05-06 02:35 | 33.79174 | -79.21803 | 39094 ft | 434 kts | 27° |
| 2026-05-06 02:35 | 33.83975 | -79.17357 | 39095 ft | 437 kts | 27° |
| 2026-05-06 02:36 | 33.88764 | -79.12907 | 39095 ft | 433 kts | 27° |
| 2026-05-06 02:36 | 33.93584 | -79.08426 | 39098 ft | 436 kts | 26° |
| 2026-05-06 02:37 | 33.98392 | -79.03951 | 39092 ft | 435 kts | 26° |
| 2026-05-06 02:37 | 34.03159 | -78.99502 | 39091 ft | 432 kts | 27° |
| 2026-05-06 02:38 | 34.07941 | -78.95040 | 39093 ft | 433 kts | 27° |
| 2026-05-06 02:38 | 34.12767 | -78.90530 | 39090 ft | 435 kts | 26° |
| 2026-05-06 02:39 | 34.17554 | -78.86047 | 39090 ft | 434 kts | 26° |
| 2026-05-06 02:39 | 34.22372 | -78.81531 | 39094 ft | 436 kts | 27° |
| 2026-05-06 02:40 | 34.27130 | -78.77059 | 39096 ft | 434 kts | 27° |
| 2026-05-06 02:40 | 34.31955 | -78.72521 | 39095 ft | 435 kts | 27° |
| 2026-05-06 02:41 | 34.36749 | -78.68007 | 39093 ft | 435 kts | 27° |
| 2026-05-06 02:41 | 34.41501 | -78.63519 | 39092 ft | 433 kts | 27° |
| 2026-05-06 02:42 | 34.46273 | -78.59016 | 39089 ft | 435 kts | 27° |
| 2026-05-06 02:42 | 34.51045 | -78.54500 | 39087 ft | 435 kts | 27° |
| 2026-05-06 02:43 | 34.55830 | -78.49965 | 39088 ft | 435 kts | 27° |
| 2026-05-06 02:43 | 34.60615 | -78.45424 | 39083 ft | 435 kts | 27° |
| 2026-05-06 02:44 | 34.65413 | -78.40866 | 39081 ft | 436 kts | 27° |
| 2026-05-06 02:44 | 34.70182 | -78.36324 | 39074 ft | 436 kts | 27° |
| 2026-05-06 02:45 | 34.74987 | -78.31744 | 39079 ft | 436 kts | 28° |
| 2026-05-06 02:45 | 34.79773 | -78.27177 | 39078 ft | 439 kts | 27° |
| 2026-05-06 02:46 | 34.84610 | -78.22551 | 39076 ft | 438 kts | 28° |
| 2026-05-06 02:46 | 34.89386 | -78.17975 | 39082 ft | 436 kts | 27° |
| 2026-05-06 02:47 | 34.94139 | -78.13412 | 39079 ft | 435 kts | 27° |
| 2026-05-06 02:47 | 34.98914 | -78.08831 | 39079 ft | 438 kts | 27° |
| 2026-05-06 02:48 | 35.03700 | -78.04229 | 39082 ft | 439 kts | 27° |
| 2026-05-06 02:48 | 35.08516 | -77.99586 | 39083 ft | 438 kts | 27° |
| 2026-05-06 02:49 | 35.13301 | -77.94967 | 39085 ft | 438 kts | 28° |
| 2026-05-06 02:49 | 35.18077 | -77.90346 | 39083 ft | 434 kts | 27° |
| 2026-05-06 02:50 | 35.22854 | -77.85729 | 39086 ft | 438 kts | 28° |
| 2026-05-06 02:50 | 35.27611 | -77.81117 | 39082 ft | 438 kts | 28° |
| 2026-05-06 02:51 | 35.32392 | -77.76473 | 39082 ft | 435 kts | 27° |
| 2026-05-06 02:51 | 35.37111 | -77.71880 | 39085 ft | 434 kts | 27° |
| 2026-05-06 02:52 | 35.41895 | -77.67227 | 39084 ft | 438 kts | 28° |
| 2026-05-06 02:52 | 35.46681 | -77.62561 | 39079 ft | 439 kts | 28° |
| 2026-05-06 02:53 | 35.51476 | -77.57873 | 39077 ft | 438 kts | 28° |
| 2026-05-06 02:53 | 35.56236 | -77.53212 | 39075 ft | 436 kts | 28° |
| 2026-05-06 02:54 | 35.60994 | -77.48550 | 39079 ft | 437 kts | 28° |
| 2026-05-06 02:54 | 35.65744 | -77.43888 | 39077 ft | 437 kts | 28° |
| 2026-05-06 02:55 | 35.70491 | -77.39220 | 39074 ft | 437 kts | 28° |
| 2026-05-06 02:55 | 35.75252 | -77.34534 | 39070 ft | 437 kts | 28° |
| 2026-05-06 02:56 | 35.80013 | -77.29839 | 39070 ft | 438 kts | 28° |
| 2026-05-06 02:56 | 35.84767 | -77.25143 | 39073 ft | 438 kts | 28° |
| 2026-05-06 02:57 | 35.89491 | -77.20467 | 39075 ft | 436 kts | 28° |
| 2026-05-06 02:57 | 35.94255 | -77.15746 | 39074 ft | 438 kts | 28° |
| 2026-05-06 02:58 | 35.99003 | -77.11036 | 39076 ft | 437 kts | 28° |
| 2026-05-06 02:58 | 36.03720 | -77.06347 | 39068 ft | 437 kts | 28° |
| 2026-05-06 02:59 | 36.08450 | -77.01636 | 39069 ft | 437 kts | 28° |
| 2026-05-06 02:59 | 36.13180 | -76.96919 | 39066 ft | 437 kts | 28° |
| 2026-05-06 03:00 | 36.17904 | -76.92200 | 39065 ft | 435 kts | 28° |
| 2026-05-06 03:00 | 36.22609 | -76.87496 | 39069 ft | 438 kts | 28° |
| 2026-05-06 03:01 | 36.27381 | -76.82717 | 39062 ft | 439 kts | 28° |
| 2026-05-06 03:01 | 36.32084 | -76.77992 | 39067 ft | 434 kts | 28° |
| 2026-05-06 03:02 | 36.36793 | -76.73257 | 39066 ft | 434 kts | 28° |
| 2026-05-06 03:02 | 36.41463 | -76.68556 | 39077 ft | 434 kts | 28° |
| 2026-05-06 03:03 | 36.46167 | -76.63819 | 39080 ft | 437 kts | 28° |
| 2026-05-06 03:03 | 36.50896 | -76.59042 | 39074 ft | 437 kts | 28° |
| 2026-05-06 03:04 | 36.55622 | -76.54261 | 39078 ft | 438 kts | 28° |
| 2026-05-06 03:04 | 36.60323 | -76.49493 | 39078 ft | 436 kts | 28° |
| 2026-05-06 03:05 | 36.65039 | -76.44707 | 39075 ft | 438 kts | 28° |
| 2026-05-06 03:05 | 36.69727 | -76.39942 | 39069 ft | 436 kts | 28° |
| 2026-05-06 03:06 | 36.74439 | -76.35145 | 39071 ft | 437 kts | 29° |
| 2026-05-06 03:06 | 36.79150 | -76.30340 | 39071 ft | 438 kts | 29° |
| 2026-05-06 03:07 | 36.83865 | -76.25523 | 39063 ft | 437 kts | 29° |
| 2026-05-06 03:07 | 36.88609 | -76.20873 | 39057 ft | 430 kts | 25° |
| 2026-05-06 03:08 | 36.93720 | -76.17228 | 39049 ft | 417 kts | 17° |
| 2026-05-06 03:08 | 36.98871 | -76.14010 | 39045 ft | 418 kts | 16° |
| 2026-05-06 03:09 | 37.04114 | -76.10757 | 39048 ft | 422 kts | 17° |
| 2026-05-06 03:09 | 37.09357 | -76.07488 | 39042 ft | 421 kts | 17° |
| 2026-05-06 03:10 | 37.14615 | -76.04202 | 39047 ft | 423 kts | 17° |
| 2026-05-06 03:10 | 37.19854 | -76.00917 | 39038 ft | 419 kts | 17° |
| 2026-05-06 03:11 | 37.25051 | -75.97656 | 39036 ft | 421 kts | 16° |
| 2026-05-06 03:11 | 37.30273 | -75.94376 | 39041 ft | 420 kts | 17° |
| 2026-05-06 03:12 | 37.35516 | -75.91078 | 39039 ft | 422 kts | 17° |
| 2026-05-06 03:12 | 37.40729 | -75.87789 | 39030 ft | 420 kts | 17° |
| 2026-05-06 03:13 | 37.45958 | -75.84489 | 39032 ft | 421 kts | 17° |
| 2026-05-06 03:13 | 37.51214 | -75.81167 | 39032 ft | 422 kts | 17° |
| 2026-05-06 03:14 | 37.56427 | -75.77863 | 39038 ft | 421 kts | 17° |
| 2026-05-06 03:14 | 37.61677 | -75.74530 | 39043 ft | 422 kts | 17° |
| 2026-05-06 03:15 | 37.66881 | -75.71225 | 39034 ft | 421 kts | 17° |
| 2026-05-06 03:15 | 37.72152 | -75.67874 | 39034 ft | 427 kts | 17° |
| 2026-05-06 03:16 | 37.77426 | -75.64508 | 39036 ft | 422 kts | 17° |
| 2026-05-06 03:16 | 37.82653 | -75.61169 | 39029 ft | 424 kts | 16° |
| 2026-05-06 03:17 | 37.87910 | -75.57813 | 39029 ft | 430 kts | 17° |
| 2026-05-06 03:17 | 37.93214 | -75.54408 | 39026 ft | 422 kts | 17° |
| 2026-05-06 03:18 | 37.98413 | -75.51065 | 39024 ft | 420 kts | 17° |
| 2026-05-06 03:18 | 38.03634 | -75.47715 | 39028 ft | 423 kts | 16° |
| 2026-05-06 03:19 | 38.08904 | -75.44347 | 39025 ft | 426 kts | 17° |
| 2026-05-06 03:19 | 38.14200 | -75.40959 | 39030 ft | 426 kts | 17° |
| 2026-05-06 03:20 | 38.22065 | -75.35851 | 39016 ft | 425 kts | 17° |
| 2026-05-06 03:20 | 38.27315 | -75.32285 | 39020 ft | 429 kts | 19° |
| 2026-05-06 03:21 | 38.32458 | -75.28554 | 39018 ft | 426 kts | 20° |
| 2026-05-06 03:21 | 38.37552 | -75.24580 | 39021 ft | 435 kts | 22° |
| 2026-05-06 03:22 | 38.42691 | -75.20279 | 39017 ft | 440 kts | 25° |
| 2026-05-06 03:22 | 38.47634 | -75.15716 | 39007 ft | 441 kts | 28° |
| 2026-05-06 03:23 | 38.50002 | -75.13253 | 38704 ft | 445 kts | 30° |
| 2026-05-06 03:23 | 38.52387 | -75.10724 | 38147 ft | 448 kts | 31° |
| 2026-05-06 03:23 | 38.54813 | -75.08180 | 37574 ft | 450 kts | 31° |
| 2026-05-06 03:23 | 38.57255 | -75.05678 | 37024 ft | 449 kts | 31° |
| 2026-05-06 03:24 | 38.59675 | -75.03249 | 36461 ft | 449 kts | 31° |
| 2026-05-06 03:24 | 38.62177 | -75.00790 | 35886 ft | 451 kts | 31° |
| 2026-05-06 03:24 | 38.64681 | -74.98383 | 35318 ft | 452 kts | 31° |
| 2026-05-06 03:24 | 38.67198 | -74.96020 | 34747 ft | 459 kts | 31° |
| 2026-05-06 03:25 | 38.69830 | -74.93614 | 34180 ft | 464 kts | 31° |
| 2026-05-06 03:25 | 38.72456 | -74.91264 | 33636 ft | 466 kts | 30° |
| 2026-05-06 03:25 | 38.75129 | -74.88903 | 33078 ft | 467 kts | 30° |
| 2026-05-06 03:25 | 38.77805 | -74.86543 | 32534 ft | 468 kts | 30° |
| 2026-05-06 03:26 | 38.80478 | -74.84190 | 31978 ft | 469 kts | 30° |
| 2026-05-06 03:26 | 38.83280 | -74.82138 | 31408 ft | 461 kts | 18° |
| 2026-05-06 03:26 | 38.86323 | -74.81098 | 30852 ft | 446 kts | 1° |
| 2026-05-06 03:26 | 38.89363 | -74.81218 | 30305 ft | 432 kts | 345° |
| 2026-05-06 03:27 | 38.92144 | -74.82448 | 29776 ft | 420 kts | 328° |
| 2026-05-06 03:27 | 38.94545 | -74.84465 | 29257 ft | 412 kts | 319° |
| 2026-05-06 03:27 | 38.96798 | -74.86707 | 28705 ft | 410 kts | 317° |
| 2026-05-06 03:27 | 38.99037 | -74.89002 | 28162 ft | 409 kts | 317° |
| 2026-05-06 03:28 | 39.01231 | -74.91244 | 27623 ft | 405 kts | 317° |
| 2026-05-06 03:28 | 39.03408 | -74.93461 | 27082 ft | 400 kts | 317° |
| 2026-05-06 03:28 | 39.05596 | -74.95674 | 26538 ft | 398 kts | 317° |
| 2026-05-06 03:28 | 39.07766 | -74.97863 | 26000 ft | 395 kts | 317° |
| 2026-05-06 03:29 | 39.09908 | -75.00015 | 25466 ft | 391 kts | 317° |
| 2026-05-06 03:29 | 39.12060 | -75.02158 | 24920 ft | 388 kts | 317° |
| 2026-05-06 03:29 | 39.14183 | -75.04254 | 24395 ft | 385 kts | 317° |
| 2026-05-06 03:29 | 39.16304 | -75.06345 | 23865 ft | 383 kts | 317° |
| 2026-05-06 03:30 | 39.18399 | -75.08408 | 23326 ft | 381 kts | 317° |
| 2026-05-06 03:30 | 39.20516 | -75.10489 | 22786 ft | 378 kts | 317° |
| 2026-05-06 03:30 | 39.22595 | -75.12521 | 22263 ft | 377 kts | 318° |
| 2026-05-06 03:30 | 39.24872 | -75.14203 | 21729 ft | 385 kts | 333° |
| 2026-05-06 03:31 | 39.27510 | -75.14913 | 21201 ft | 393 kts | 353° |
| 2026-05-06 03:31 | 39.30252 | -75.14460 | 20673 ft | 400 kts | 13° |
| 2026-05-06 03:31 | 39.32750 | -75.12879 | 20153 ft | 404 kts | 33° |
| 2026-05-06 03:31 | 39.34806 | -75.10424 | 19652 ft | 402 kts | 45° |
| 2026-05-06 03:32 | 39.36762 | -75.07945 | 19135 ft | 398 kts | 41° |
| 2026-05-06 03:32 | 39.38813 | -75.05549 | 18609 ft | 395 kts | 40° |
| 2026-05-06 03:32 | 39.40858 | -75.03215 | 18087 ft | 392 kts | 40° |
| 2026-05-06 03:32 | 39.42900 | -75.00903 | 17574 ft | 390 kts | 40° |
| 2026-05-06 03:33 | 39.44928 | -74.98607 | 17056 ft | 387 kts | 40° |
| 2026-05-06 03:33 | 39.46952 | -74.96318 | 16539 ft | 384 kts | 40° |
| 2026-05-06 03:33 | 39.48945 | -74.94061 | 16012 ft | 382 kts | 40° |
| 2026-05-06 03:33 | 39.50914 | -74.91826 | 15473 ft | 375 kts | 40° |
| 2026-05-06 03:34 | 39.52854 | -74.89625 | 14959 ft | 362 kts | 40° |
| 2026-05-06 03:34 | 39.54700 | -74.87529 | 14458 ft | 351 kts | 40° |
| 2026-05-06 03:34 | 39.56507 | -74.85479 | 13958 ft | 342 kts | 40° |
| 2026-05-06 03:34 | 39.58287 | -74.83464 | 13432 ft | 333 kts | 40° |
| 2026-05-06 03:35 | 39.60003 | -74.81521 | 12928 ft | 326 kts | 40° |
| 2026-05-06 03:35 | 39.61682 | -74.79621 | 12412 ft | 320 kts | 38° |
| 2026-05-06 03:35 | 39.63410 | -74.77848 | 11901 ft | 315 kts | 33° |
| 2026-05-06 03:35 | 39.65318 | -74.76560 | 11389 ft | 306 kts | 16° |
| 2026-05-06 03:36 | 39.67335 | -74.75739 | 10894 ft | 302 kts | 13° |
| 2026-05-06 03:36 | 39.69322 | -74.74923 | 10400 ft | 301 kts | 14° |
| 2026-05-06 03:36 | 39.71302 | -74.74026 | 9880 ft | 299 kts | 17° |
| 2026-05-06 03:36 | 39.73242 | -74.73090 | 9367 ft | 295 kts | 17° |
| 2026-05-06 03:37 | 39.75137 | -74.72154 | 8829 ft | 292 kts | 17° |
| 2026-05-06 03:37 | 39.77017 | -74.71217 | 8302 ft | 290 kts | 17° |
| 2026-05-06 03:37 | 39.78900 | -74.70277 | 7776 ft | 287 kts | 17° |
| 2026-05-06 03:37 | 39.80742 | -74.69357 | 7254 ft | 285 kts | 17° |
| 2026-05-06 03:38 | 39.82592 | -74.68433 | 6725 ft | 283 kts | 17° |
| 2026-05-06 03:38 | 39.84415 | -74.67522 | 6182 ft | 282 kts | 16° |
| 2026-05-06 03:38 | 39.86254 | -74.66603 | 5661 ft | 281 kts | 16° |
| 2026-05-06 03:38 | 39.88059 | -74.65700 | 5152 ft | 281 kts | 16° |
| 2026-05-06 03:39 | 39.89894 | -74.64781 | 4633 ft | 280 kts | 16° |
| 2026-05-06 03:39 | 39.91701 | -74.63876 | 4122 ft | 280 kts | 16° |
| 2026-05-06 03:39 | 39.93506 | -74.62972 | 3607 ft | 280 kts | 16° |
| 2026-05-06 03:39 | 39.95329 | -74.62058 | 3099 ft | 280 kts | 16° |
| 2026-05-06 03:40 | 39.97136 | -74.61150 | 2941 ft | 271 kts | 16° |
| 2026-05-06 03:40 | 39.98856 | -74.60281 | 2995 ft | 260 kts | 16° |
| 2026-05-06 03:40 | 40.00538 | -74.59438 | 2998 ft | 258 kts | 16° |
| 2026-05-06 03:40 | 40.02200 | -74.58602 | 3006 ft | 256 kts | 16° |
| 2026-05-06 03:41 | 40.03862 | -74.57767 | 2996 ft | 257 kts | 16° |
| 2026-05-06 03:41 | 40.05534 | -74.56926 | 2998 ft | 257 kts | 15° |
| 2026-05-06 03:41 | 40.07199 | -74.56087 | 2993 ft | 252 kts | 15° |
| 2026-05-06 03:41 | 40.08827 | -74.55267 | 2995 ft | 247 kts | 15° |
| 2026-05-06 03:42 | 40.10438 | -74.54456 | 2991 ft | 247 kts | 15° |
| 2026-05-06 03:42 | 40.12042 | -74.53648 | 2993 ft | 248 kts | 15° |
| 2026-05-06 03:42 | 40.13641 | -74.52843 | 2988 ft | 247 kts | 15° |
| 2026-05-06 03:42 | 40.15237 | -74.52036 | 2988 ft | 247 kts | 15° |
| 2026-05-06 03:43 | 40.16864 | -74.51357 | 2988 ft | 242 kts | 1° |
| 2026-05-06 03:43 | 40.18456 | -74.51623 | 2991 ft | 220 kts | 325° |
| 2026-05-06 03:43 | 40.19627 | -74.52715 | 2898 ft | 198 kts | 303° |
| 2026-05-06 03:43 | 40.20341 | -74.54115 | 2770 ft | 172 kts | 280° |
| 2026-05-06 03:44 | 40.20573 | -74.55573 | 2646 ft | 160 kts | 265° |
| 2026-05-06 03:44 | 40.20645 | -74.57039 | 2523 ft | 161 kts | 264° |
| 2026-05-06 03:44 | 40.20725 | -74.58486 | 2390 ft | 158 kts | 264° |
| 2026-05-06 03:44 | 40.20803 | -74.59885 | 2261 ft | 150 kts | 263° |
| 2026-05-06 03:45 | 40.20877 | -74.61245 | 2140 ft | 149 kts | 264° |
| 2026-05-06 03:45 | 40.20948 | -74.62603 | 2092 ft | 148 kts | 263° |
| 2026-05-06 03:45 | 40.21012 | -74.63935 | 2096 ft | 148 kts | 260° |
| 2026-05-06 03:45 | 40.20720 | -74.65195 | 1830 ft | 148 kts | 230° |
| 2026-05-06 03:46 | 40.20123 | -74.66277 | 1584 ft | 146 kts | 233° |
| 2026-05-06 03:46 | 40.19884 | -74.67531 | 1723 ft | 154 kts | 264° |
| 2026-05-06 03:46 | 40.20112 | -74.68942 | 1823 ft | 159 kts | 275° |
| 2026-05-06 03:46 | 40.20441 | -74.70341 | 1982 ft | 164 kts | 276° |
| 2026-05-06 03:47 | 40.20735 | -74.71739 | 2067 ft | 158 kts | 273° |
| 2026-05-06 03:47 | 40.21170 | -74.73111 | 2084 ft | 169 kts | 284° |
| 2026-05-06 03:47 | 40.21515 | -74.74508 | 2085 ft | 155 kts | 268° |
| 2026-05-06 03:47 | 40.21632 | -74.75902 | 2085 ft | 155 kts | 265° |
| 2026-05-06 03:48 | 40.21719 | -74.77309 | 2083 ft | 154 kts | 264° |
| 2026-05-06 03:48 | 40.21795 | -74.78710 | 2080 ft | 155 kts | 264° |
| 2026-05-06 03:48 | 40.21868 | -74.80116 | 2081 ft | 155 kts | 264° |
| 2026-05-06 03:48 | 40.21721 | -74.81445 | 2079 ft | 143 kts | 234° |
| 2026-05-06 03:49 | 40.21014 | -74.82324 | 2085 ft | 142 kts | 220° |
| 2026-05-06 03:49 | 40.20394 | -74.83310 | 2086 ft | 140 kts | 230° |
| 2026-05-06 03:49 | 40.19787 | -74.84324 | 2083 ft | 141 kts | 227° |
| 2026-05-06 03:49 | 40.19156 | -74.85298 | 2085 ft | 141 kts | 226° |
| 2026-05-06 03:50 | 40.18516 | -74.86251 | 2085 ft | 140 kts | 226° |
| 2026-05-06 03:50 | 40.17858 | -74.87223 | 2082 ft | 143 kts | 226° |
| 2026-05-06 03:50 | 40.17191 | -74.88200 | 2085 ft | 143 kts | 226° |
| 2026-05-06 03:50 | 40.16540 | -74.89158 | 2082 ft | 139 kts | 225° |
| 2026-05-06 03:51 | 40.15905 | -74.90091 | 2073 ft | 133 kts | 225° |
| 2026-05-06 03:51 | 40.15304 | -74.90975 | 1926 ft | 129 kts | 225° |
| 2026-05-06 03:51 | 40.14715 | -74.91840 | 1801 ft | 127 kts | 225° |
| 2026-05-06 03:51 | 40.14148 | -74.92670 | 1600 ft | 122 kts | 224° |
| 2026-05-06 03:52 | 40.13591 | -74.93484 | 1436 ft | 118 kts | 225° |
| 2026-05-06 03:52 | 40.13066 | -74.94250 | 1288 ft | 110 kts | 225° |
| 2026-05-06 03:52 | 40.12544 | -74.95019 | 1148 ft | 114 kts | 225° |
| 2026-05-06 03:52 | 40.12027 | -74.95776 | 998 ft | 110 kts | 226° |
| 2026-05-06 03:53 | 40.11505 | -74.96540 | 849 ft | 113 kts | 224° |
| 2026-05-06 03:53 | 40.10963 | -74.97330 | 708 ft | 120 kts | 224° |
| 2026-05-06 03:53 | 40.10425 | -74.98121 | 542 ft | 114 kts | 224° |
| 2026-05-06 03:53 | 40.09880 | -74.98915 | 401 ft | 122 kts | 225° |
| 2026-05-06 03:54 | 40.09309 | -74.99751 | 235 ft | 123 kts | 224° |
| 2026-05-06 03:54 | 40.08767 | -75.00546 | 128 ft | 110 kts | 224° |
| 2026-05-06 03:54 | 40.08354 | -75.01138 | 113 ft | 55 kts | 230° |
| 2026-05-06 03:54 | 40.08167 | -75.01416 | 113 ft | 29 kts | 228° |
| 2026-05-06 03:55 | 40.08046 | -75.01592 | 109 ft | 22 kts | 228° |
| 2026-05-06 03:55 | 40.07960 | -75.01594 | 107 ft | 13 kts | 99° |
| 2026-05-06 03:55 | 40.07957 | -75.01520 | 108 ft | 3 kts | 91° |
| 2026-05-06 03:55 | 40.07957 | -75.01505 | 108 ft | 1 kts | 92° |
| 2026-05-06 03:56 | 40.07956 | -75.01463 | 108 ft | 11 kts | 93° |
| 2026-05-06 03:56 | 40.07952 | -75.01344 | 105 ft | 13 kts | 92° |
| 2026-05-06 03:56 | 40.07944 | -75.01219 | 105 ft | 13 kts | 107° |
| 2026-05-06 03:56 | 40.07880 | -75.01131 | 103 ft | 14 kts | 140° |
| 2026-05-06 03:57 | 40.07800 | -75.01046 | 100 ft | 10 kts | 141° |
| 2026-05-06 03:57 | 40.07740 | -75.01022 | 98 ft | 3 kts | 181° |
| 2026-05-06 03:58 | 40.07739 | -75.01022 | 98 ft | 0 kts | 181° |
| 2026-05-06 03:58 | 40.07722 | -75.01028 | 98 ft | 4 kts | 200° |
| 2026-05-06 03:58 | 40.07709 | -75.01063 | 98 ft | 5 kts | 286° |
| 2026-05-06 03:58 | 40.07729 | -75.01095 | 99 ft | 4 kts | 322° |
| 2026-05-06 03:59 | 40.07734 | -75.01099 | 99 ft | 0 kts | 321° |